createdAt,value
2018-09-15T00:00:43.435Z,39.00
2018-09-15T00:03:12.003Z,47.45
2018-09-15T00:05:40.563Z,41.20
2018-09-15T00:08:09.115Z,43.30
2018-09-15T00:10:37.689Z,43.50
2018-09-15T00:13:06.355Z,40.33
2018-09-15T00:15:34.923Z,43.90
2018-09-15T00:18:05.801Z,44.93
2018-09-15T00:20:34.434Z,50.30
2018-09-15T00:23:03.104Z,47.98
2018-09-15T00:25:32.077Z,46.98
2018-09-15T00:28:00.657Z,39.08
2018-09-15T00:30:29.233Z,40.90
2018-09-15T00:32:57.842Z,48.52
2018-09-15T00:35:26.426Z,49.05
2018-09-15T00:37:54.975Z,49.40
2018-09-15T00:40:23.631Z,51.48
2018-09-15T00:42:52.169Z,48.83
2018-09-15T00:45:20.727Z,42.10
2018-09-15T00:47:49.306Z,48.70
2018-09-15T00:50:17.852Z,46.37
2018-09-15T00:52:46.418Z,47.90
2018-09-15T00:55:14.967Z,51.70
2018-09-15T00:57:43.646Z,43.52
2018-09-15T01:00:12.291Z,50.15
2018-09-15T01:02:40.838Z,53.68
2018-09-15T01:05:09.420Z,48.83
2018-09-15T01:07:38.063Z,46.98
2018-09-15T01:10:07.071Z,50.17
2018-09-15T01:12:35.631Z,57.53
2018-09-15T01:15:04.252Z,53.35
2018-09-15T01:17:32.794Z,50.60
2018-09-15T01:20:01.504Z,56.08
2018-09-15T01:22:30.024Z,52.80
2018-09-15T01:24:58.553Z,48.58
2018-09-15T01:27:27.114Z,50.95
2018-09-15T01:29:55.694Z,51.25
2018-09-15T01:32:26.540Z,53.55
2018-09-15T01:34:55.228Z,49.95
2018-09-15T01:37:23.855Z,53.83
2018-09-15T01:39:52.418Z,52.95
2018-09-15T01:42:20.989Z,52.95
2018-09-15T01:44:49.562Z,45.17
2018-09-15T01:47:18.114Z,48.05
2018-09-15T01:49:46.715Z,45.17
2018-09-15T01:52:15.254Z,48.80
2018-09-15T01:54:43.835Z,51.15
2018-09-15T01:57:12.611Z,55.67
2018-09-15T01:59:41.255Z,45.95
2018-09-15T02:02:09.788Z,43.13
2018-09-15T02:04:38.351Z,48.68
2018-09-15T02:07:06.906Z,43.75
2018-09-15T02:09:35.468Z,44.73
2018-09-15T02:12:04.005Z,52.83
2018-09-15T02:14:32.566Z,49.33
2018-09-15T02:17:01.117Z,47.75
2018-09-15T02:19:29.665Z,42.17
2018-09-15T02:21:58.219Z,44.27
2018-09-15T02:24:26.767Z,49.23
2018-09-15T02:26:55.305Z,43.65
2018-09-15T02:29:23.923Z,49.15
2018-09-15T02:31:52.475Z,44.63
2018-09-15T02:34:21.037Z,47.85
2018-09-15T02:36:49.920Z,49.10
2018-09-15T02:39:18.648Z,44.85
2018-09-15T02:41:47.180Z,42.90
2018-09-15T02:44:15.775Z,44.27
2018-09-15T02:46:44.307Z,41.15
2018-09-15T02:49:12.855Z,41.65
2018-09-15T02:51:41.396Z,47.83
2018-09-15T02:54:09.952Z,42.27
2018-09-15T02:56:38.524Z,42.95
2018-09-15T02:59:07.214Z,37.58
2018-09-15T03:01:35.800Z,36.03
2018-09-15T03:04:04.365Z,31.68
2018-09-15T03:06:32.928Z,37.17
2018-09-15T03:09:01.472Z,37.03
2018-09-15T03:11:30.027Z,40.88
2018-09-15T03:13:58.596Z,44.63
2018-09-15T03:16:27.152Z,43.52
2018-09-15T03:18:55.716Z,45.78
2018-09-15T03:21:24.275Z,46.15
2018-09-15T03:23:52.842Z,38.50
2018-09-15T03:26:21.389Z,42.83
2018-09-15T03:28:49.929Z,41.90
2018-09-15T03:31:18.486Z,35.90
2018-09-15T03:33:47.069Z,48.42
2018-09-15T03:36:15.631Z,48.35
2018-09-15T03:38:44.195Z,42.98
2018-09-15T03:41:12.739Z,52.03
2018-09-15T03:43:41.266Z,48.23
2018-09-15T03:46:09.835Z,43.63
2018-09-15T03:48:40.702Z,47.30
2018-09-15T03:51:09.276Z,43.50
2018-09-15T03:53:37.879Z,50.10
2018-09-15T03:56:06.465Z,49.93
2018-09-15T03:58:35.053Z,51.80
2018-09-15T04:01:03.615Z,48.87
2018-09-15T04:03:32.148Z,48.85
2018-09-15T04:06:00.721Z,45.40
2018-09-15T04:08:29.267Z,49.83
2018-09-15T04:10:57.825Z,55.00
2018-09-15T04:13:26.389Z,44.23
2018-09-15T04:15:54.949Z,43.95
2018-09-15T04:18:23.504Z,39.53
2018-09-15T04:20:52.040Z,55.83
2018-09-15T04:23:20.630Z,50.30
2018-09-15T04:25:49.154Z,49.05
2018-09-15T04:28:17.728Z,51.15
2018-09-15T04:30:46.274Z,54.67
2018-09-15T04:33:14.867Z,48.90
2018-09-15T04:35:43.396Z,48.13
2018-09-15T04:38:11.941Z,46.92
2018-09-15T04:40:40.482Z,45.00
2018-09-15T04:43:09.011Z,46.60
2018-09-15T04:45:37.702Z,47.38
2018-09-15T04:48:06.303Z,47.23
2018-09-15T04:50:34.859Z,49.00
2018-09-15T04:53:03.410Z,53.45
2018-09-15T04:55:31.957Z,50.60
2018-09-15T04:58:00.488Z,46.20
2018-09-15T05:00:29.035Z,53.42
2018-09-15T05:02:57.599Z,48.70
2018-09-15T05:05:26.163Z,45.20
2018-09-15T05:07:54.727Z,39.80
2018-09-15T05:10:23.377Z,43.87
2018-09-15T05:12:52.000Z,46.63
2018-09-15T05:15:20.503Z,40.95
2018-09-15T05:17:49.059Z,42.05
2018-09-15T05:20:17.622Z,41.80
2018-09-15T05:22:46.164Z,48.65
2018-09-15T05:25:14.715Z,42.08
2018-09-15T05:27:43.337Z,39.18
2018-09-15T05:30:11.960Z,34.55
2018-09-15T05:32:40.519Z,36.60
2018-09-15T05:35:09.123Z,38.42
2018-09-15T05:37:37.656Z,39.90
2018-09-15T05:40:06.265Z,37.38
2018-09-15T05:42:34.847Z,39.50
2018-09-15T05:45:03.416Z,39.98
2018-09-15T05:47:32.094Z,37.30
2018-09-15T05:50:00.667Z,36.77
2018-09-15T05:52:29.225Z,38.65
2018-09-15T05:54:57.767Z,38.55
2018-09-15T05:57:26.332Z,42.15
2018-09-15T05:59:54.947Z,37.42
2018-09-15T06:02:23.776Z,40.43
2018-09-15T06:04:52.347Z,46.90
2018-09-15T06:07:20.923Z,40.33
2018-09-15T06:09:49.455Z,37.90
2018-09-15T06:12:18.065Z,36.90
2018-09-15T06:14:46.630Z,46.10
2018-09-15T06:17:15.167Z,40.20
2018-09-15T06:19:43.709Z,31.17
2018-09-15T06:22:12.243Z,35.73
2018-09-15T06:24:40.802Z,40.03
2018-09-15T06:27:10.434Z,45.67
2018-09-15T06:29:39.011Z,39.78
2018-09-15T06:32:07.800Z,41.98
2018-09-15T06:34:36.344Z,40.30
2018-09-15T06:37:04.897Z,40.88
2018-09-15T06:39:33.448Z,39.60
2018-09-15T06:42:01.982Z,45.90
2018-09-15T06:44:30.530Z,42.48
2018-09-15T06:46:59.066Z,37.58
2018-09-15T06:49:27.621Z,35.95
2018-09-15T06:51:56.172Z,33.50
2018-09-15T06:54:24.698Z,39.53
2018-09-15T06:56:53.219Z,36.30
2018-09-15T06:59:21.752Z,32.40
2018-09-15T07:01:50.271Z,28.15
2018-09-15T07:04:18.819Z,34.85
2018-09-15T07:06:47.379Z,34.23
2018-09-15T07:09:15.915Z,29.67
2018-09-15T07:11:44.461Z,29.72
2018-09-15T07:14:12.997Z,30.85
2018-09-15T07:16:41.686Z,32.42
2018-09-15T07:19:10.228Z,26.20
2018-09-15T07:21:38.773Z,31.05
2018-09-15T07:24:07.307Z,28.17
2018-09-15T07:26:36.697Z,38.95
2018-09-15T07:29:05.320Z,26.25
2018-09-15T07:31:33.957Z,33.50
2018-09-15T07:34:02.428Z,30.32
2018-09-15T07:36:30.961Z,30.10
2018-09-15T07:38:59.537Z,29.00
2018-09-15T07:41:28.087Z,29.42
2018-09-15T07:43:56.639Z,26.95
2018-09-15T07:46:25.173Z,26.75
2018-09-15T07:48:53.779Z,24.00
2018-09-15T07:51:22.320Z,24.35
2018-09-15T07:53:50.850Z,26.55
2018-09-15T07:56:19.395Z,29.98
2018-09-15T07:58:47.997Z,43.90
2018-09-15T08:01:16.544Z,28.02
2018-09-15T08:03:45.300Z,28.40
2018-09-15T08:06:13.884Z,19.98
2018-09-15T08:08:42.425Z,25.10
2018-09-15T08:11:11.014Z,21.57
2018-09-15T08:13:39.536Z,25.82
2018-09-15T08:16:08.347Z,18.48
2018-09-15T08:18:36.892Z,35.43
2018-09-15T08:21:05.507Z,23.15
2018-09-15T08:23:34.109Z,20.77
2018-09-15T08:26:02.711Z,19.15
2018-09-15T08:28:31.369Z,23.75
2018-09-15T08:31:00.128Z,18.35
2018-09-15T08:33:29.981Z,20.92
2018-09-15T08:35:58.546Z,29.07
2018-09-15T08:38:27.112Z,21.73
2018-09-15T08:40:55.717Z,20.23
2018-09-15T08:43:24.343Z,25.62
2018-09-15T08:45:54.079Z,20.70
2018-09-15T08:48:22.763Z,20.88
2018-09-15T08:50:51.290Z,28.42
2018-09-15T08:53:19.855Z,21.90
2018-09-15T08:55:48.453Z,23.80
2018-09-15T08:58:16.995Z,27.50
2018-09-15T09:00:45.571Z,24.82
2018-09-15T09:03:14.102Z,24.10
2018-09-15T09:05:42.751Z,24.60
2018-09-15T09:08:11.316Z,27.50
2018-09-15T09:10:39.873Z,35.23
2018-09-15T09:13:09.652Z,27.42
2018-09-15T09:15:38.230Z,35.20
2018-09-15T09:18:06.858Z,29.52
2018-09-15T09:20:35.413Z,38.38
2018-09-15T09:23:05.249Z,31.65
2018-09-15T09:25:33.779Z,29.25
2018-09-15T09:28:02.343Z,31.65
2018-09-15T09:30:30.892Z,31.05
2018-09-15T09:32:59.499Z,34.90
2018-09-15T09:35:28.065Z,30.62
2018-09-15T09:37:56.615Z,32.50
2018-09-15T09:40:25.418Z,34.58
2018-09-15T09:42:54.212Z,37.08
2018-09-15T09:45:22.773Z,41.45
2018-09-15T09:47:51.383Z,36.80
2018-09-15T09:50:19.969Z,33.13
2018-09-15T09:52:48.520Z,37.03
2018-09-15T09:55:17.185Z,29.75
2018-09-15T09:57:45.722Z,33.73
2018-09-15T10:00:18.487Z,36.95
2018-09-15T10:02:47.104Z,34.90
2018-09-15T10:05:15.645Z,36.15
2018-09-15T10:07:44.210Z,30.00
2018-09-15T10:10:13.084Z,31.33
2018-09-15T10:12:41.790Z,31.60
2018-09-15T10:15:10.522Z,31.73
2018-09-15T10:17:39.067Z,29.72
2018-09-15T10:20:07.674Z,31.30
2018-09-15T10:22:36.207Z,35.35
2018-09-15T10:25:04.801Z,27.45
2018-09-15T10:27:33.355Z,25.68
2018-09-15T10:30:01.955Z,36.23
2018-09-15T10:32:30.519Z,22.67
2018-09-15T10:34:59.192Z,26.05
2018-09-15T10:37:28.080Z,27.58
2018-09-15T10:39:56.718Z,26.70
2018-09-15T10:42:25.254Z,23.12
2018-09-15T10:44:53.983Z,24.85
2018-09-15T10:47:22.562Z,20.55
2018-09-15T10:49:51.105Z,16.00
2018-09-15T10:52:19.717Z,19.73
2018-09-15T10:54:48.230Z,22.20
2018-09-15T10:57:16.773Z,16.20
2018-09-15T10:59:45.335Z,19.27
2018-09-15T11:02:14.954Z,21.00
2018-09-15T11:04:45.495Z,14.78
2018-09-15T11:07:14.470Z,15.13
2018-09-15T11:09:43.265Z,14.83
2018-09-15T11:12:11.905Z,16.07
2018-09-15T11:14:40.441Z,17.23
2018-09-15T11:17:08.981Z,16.42
2018-09-15T11:19:39.191Z,13.38
2018-09-15T11:22:07.774Z,12.47
2018-09-15T11:24:36.334Z,13.28
2018-09-15T11:27:05.444Z,28.35
2018-09-15T11:29:34.247Z,15.13
2018-09-15T11:32:03.253Z,13.80
2018-09-15T11:34:31.836Z,16.17
2018-09-15T11:37:00.380Z,18.23
2018-09-15T11:39:28.925Z,19.55
2018-09-15T11:41:57.474Z,16.62
2018-09-15T11:44:25.998Z,14.70
2018-09-15T11:46:54.670Z,15.50
2018-09-15T11:49:23.224Z,15.70
2018-09-15T11:51:51.757Z,12.37
2018-09-15T11:54:20.333Z,12.27
2018-09-15T11:56:48.875Z,14.77
2018-09-15T11:59:17.478Z,7.23
2018-09-15T12:01:46.029Z,7.83
2018-09-15T12:04:14.552Z,7.00
2018-09-15T12:06:43.119Z,9.33
2018-09-15T12:09:11.657Z,11.27
2018-09-15T12:11:40.163Z,8.83
2018-09-15T12:14:08.707Z,10.67
2018-09-15T12:16:37.299Z,13.20
2018-09-15T12:19:05.824Z,7.50
2018-09-15T12:21:34.427Z,11.97
2018-09-15T12:24:02.989Z,11.57
2018-09-15T12:26:31.553Z,7.27
2018-09-15T12:29:00.099Z,8.07
2018-09-15T12:31:28.621Z,13.67
2018-09-15T12:33:57.148Z,9.77
2018-09-15T12:36:25.704Z,13.60
2018-09-15T12:38:54.254Z,11.00
2018-09-15T12:41:22.780Z,13.20
2018-09-15T12:43:51.307Z,20.13
2018-09-15T12:46:19.853Z,8.77
2018-09-15T12:48:48.709Z,7.40
2018-09-15T12:51:17.247Z,6.53
2018-09-15T12:53:45.808Z,6.83
2018-09-15T12:56:15.013Z,7.53
2018-09-15T12:58:43.541Z,7.50
2018-09-15T13:01:12.063Z,4.27
2018-09-15T13:03:40.618Z,6.83
2018-09-15T13:06:09.148Z,2.87
2018-09-15T13:08:37.659Z,3.10
2018-09-15T13:11:06.268Z,3.30
2018-09-15T13:13:34.816Z,10.50
2018-09-15T13:16:03.365Z,4.07
2018-09-15T13:18:31.907Z,4.70
2018-09-15T13:21:00.435Z,7.20
2018-09-15T13:23:29.000Z,4.30
2018-09-15T13:25:57.536Z,13.83
2018-09-15T13:28:26.047Z,5.87
2018-09-15T13:30:54.583Z,7.83
2018-09-15T13:33:23.160Z,5.13
2018-09-15T13:35:51.699Z,3.60
2018-09-15T13:38:20.246Z,4.57
2018-09-15T13:40:48.811Z,7.73
2018-09-15T13:43:17.358Z,6.90
2018-09-15T13:45:45.948Z,7.73
2018-09-15T13:48:14.485Z,11.03
2018-09-15T13:50:43.079Z,8.20
2018-09-15T13:53:11.651Z,7.40
2018-09-15T13:55:40.210Z,5.73
2018-09-15T13:58:08.776Z,9.40
2018-09-15T14:00:37.296Z,7.17
2018-09-15T14:03:05.933Z,6.40
2018-09-15T14:05:34.556Z,11.23
2018-09-15T14:08:03.088Z,7.47
2018-09-15T14:10:31.694Z,26.87
2018-09-15T14:13:00.205Z,202.17
2018-09-15T14:15:28.797Z,174.73
2018-09-15T14:17:57.342Z,173.27
2018-09-15T14:20:25.957Z,180.67
2018-09-15T14:22:54.489Z,69.83
2018-09-15T14:25:22.997Z,9.87
2018-09-15T14:27:51.565Z,4.90
2018-09-15T14:30:20.107Z,4.43
2018-09-15T14:32:48.696Z,3.50
2018-09-15T14:35:17.279Z,3.57
2018-09-15T14:37:45.862Z,4.93
2018-09-15T14:40:14.457Z,7.27
2018-09-15T14:42:43.002Z,4.73
2018-09-15T14:45:11.694Z,5.00
2018-09-15T14:47:40.212Z,3.87
2018-09-15T14:50:08.876Z,5.70
2018-09-15T14:52:37.364Z,7.00
2018-09-15T14:55:05.985Z,11.30
2018-09-15T14:57:34.532Z,5.80
2018-09-15T15:00:03.285Z,34.23
2018-09-15T15:02:31.905Z,18.90
2018-09-15T15:05:00.483Z,9.10
2018-09-15T15:07:29.141Z,7.73
2018-09-15T15:09:57.700Z,6.83
2018-09-15T15:12:26.244Z,11.80
2018-09-15T15:14:54.761Z,5.30
2018-09-15T15:17:23.310Z,4.47
2018-09-15T15:19:51.867Z,12.03
2018-09-15T15:22:20.397Z,3.10
2018-09-15T15:24:49.082Z,2.83
2018-09-15T15:27:17.627Z,4.13
2018-09-15T15:29:46.210Z,3.30
2018-09-15T15:32:14.786Z,15.27
2018-09-15T15:34:43.349Z,2.52
2018-09-15T15:37:11.909Z,6.12
2018-09-15T15:39:40.446Z,10.60
2018-09-15T15:42:09.085Z,2.37
2018-09-15T15:44:37.636Z,3.23
2018-09-15T15:47:06.396Z,4.83
2018-09-15T15:49:35.061Z,1.93
2018-09-15T15:52:03.725Z,4.07
2018-09-15T15:54:32.272Z,9.50
2018-09-15T15:57:00.868Z,6.23
2018-09-15T15:59:29.462Z,23.03
2018-09-15T16:01:58.016Z,9.50
2018-09-15T16:04:26.637Z,12.73
2018-09-15T16:06:55.235Z,5.37
2018-09-15T16:09:23.785Z,9.03
2018-09-15T16:11:52.360Z,9.43
2018-09-15T16:14:20.987Z,9.63
2018-09-15T16:16:49.545Z,7.43
2018-09-15T16:19:18.098Z,2.55
2018-09-15T16:21:46.662Z,249.97
2018-09-15T16:24:15.327Z,7.60
2018-09-15T16:26:45.963Z,4.33
2018-09-15T16:29:14.513Z,3.43
2018-09-15T16:31:43.071Z,2.35
2018-09-15T16:34:11.704Z,7.70
2018-09-15T16:36:40.312Z,1.90
2018-09-15T16:39:10.626Z,2.65
2018-09-15T16:41:39.456Z,3.17
2018-09-15T16:44:08.159Z,2.47
2018-09-15T16:46:36.899Z,5.22
2018-09-15T16:49:06.347Z,1.93
2018-09-15T16:51:34.891Z,2.27
2018-09-15T16:54:03.599Z,3.47
2018-09-15T16:56:32.123Z,4.03
2018-09-15T16:59:01.541Z,2.45
2018-09-15T17:01:30.099Z,2.08
2018-09-15T17:03:58.615Z,4.20
2018-09-15T17:06:27.221Z,2.47
2018-09-15T17:08:55.748Z,4.00
2018-09-15T17:11:24.358Z,3.15
2018-09-15T17:13:52.922Z,2.92
2018-09-15T17:16:21.565Z,5.10
2018-09-15T17:18:50.104Z,2.52
2018-09-15T17:21:18.675Z,3.60
2018-09-15T17:23:47.239Z,4.20
2018-09-15T17:26:15.775Z,4.67
2018-09-15T17:28:44.388Z,4.80
2018-09-15T17:31:13.017Z,4.37
2018-09-15T17:33:41.571Z,4.37
2018-09-15T17:36:10.144Z,7.85
2018-09-15T17:38:38.839Z,5.87
2018-09-15T17:41:07.392Z,9.10
2018-09-15T17:43:36.053Z,8.43
2018-09-15T17:46:04.635Z,5.15
2018-09-15T17:48:33.211Z,4.20
2018-09-15T17:51:01.795Z,8.68
2018-09-15T17:53:30.409Z,10.93
2018-09-15T17:55:58.953Z,8.30
2018-09-15T17:58:27.539Z,12.73
2018-09-15T18:00:56.091Z,7.92
2018-09-15T18:03:24.703Z,6.95
2018-09-15T18:05:53.231Z,7.67
2018-09-15T18:08:21.794Z,7.72
2018-09-15T18:10:50.349Z,7.53
2018-09-15T18:13:18.901Z,5.97
2018-09-15T18:15:47.651Z,8.73
2018-09-15T18:18:16.184Z,6.45
2018-09-15T18:20:44.750Z,6.42
2018-09-15T18:23:13.259Z,4.58
2018-09-15T18:25:41.800Z,6.53
2018-09-15T18:28:10.410Z,4.35
2018-09-15T18:30:38.921Z,10.23
2018-09-15T18:33:07.465Z,4.75
2018-09-15T18:35:36.016Z,3.65
2018-09-15T18:38:04.685Z,9.38
2018-09-15T18:40:33.249Z,8.55
2018-09-15T18:43:01.836Z,5.20
2018-09-15T18:45:30.410Z,8.20
2018-09-15T18:47:58.962Z,5.20
2018-09-15T18:50:27.537Z,10.72
2018-09-15T18:52:56.076Z,12.00
2018-09-15T18:55:24.628Z,15.35
2018-09-15T18:57:53.197Z,27.50
2018-09-15T19:00:21.782Z,109.12
2018-09-15T19:02:50.346Z,107.58
2018-09-15T19:05:18.972Z,56.23
2018-09-15T19:07:47.904Z,42.55
2018-09-15T19:10:16.444Z,36.68
2018-09-15T19:12:44.991Z,40.70
2018-09-15T19:15:13.518Z,33.85
2018-09-15T19:17:42.095Z,31.57
2018-09-15T19:20:10.650Z,38.50
2018-09-15T19:22:39.203Z,35.50
2018-09-15T19:25:07.767Z,40.98
2018-09-15T19:27:36.319Z,43.55
2018-09-15T19:30:05.315Z,45.70
2018-09-15T19:32:33.956Z,49.67
2018-09-15T19:35:02.481Z,49.70
2018-09-15T19:37:31.021Z,55.10
2018-09-15T19:39:59.583Z,47.00
2018-09-15T19:42:28.099Z,43.78
2018-09-15T19:44:56.642Z,28.95
2018-09-15T19:47:25.210Z,33.85
2018-09-15T19:49:53.772Z,31.17
2018-09-15T19:52:22.374Z,19.60
2018-09-15T19:54:50.922Z,15.48
2018-09-15T19:57:19.527Z,16.52
2018-09-15T19:59:48.053Z,10.38
2018-09-15T20:02:16.591Z,8.55
2018-09-15T20:04:45.119Z,8.50
2018-09-15T20:07:13.744Z,4.97
2018-09-15T20:09:42.282Z,6.95
2018-09-15T20:12:10.808Z,5.65
2018-09-15T20:14:39.332Z,8.45
2018-09-15T20:17:06.700Z,6.30
2018-09-15T20:19:34.105Z,8.15
2018-09-15T20:22:02.659Z,4.70
2018-09-15T20:24:31.309Z,7.53
2018-09-15T20:26:59.930Z,5.58
2018-09-15T20:29:28.553Z,5.90
2018-09-15T20:31:57.131Z,11.80
2018-09-15T20:34:25.658Z,7.83
2018-09-15T20:36:54.222Z,6.78
2018-09-15T20:39:22.753Z,8.30
2018-09-15T20:41:51.255Z,3.98
2018-09-15T20:44:19.778Z,8.08
2018-09-15T20:46:48.393Z,14.00
2018-09-15T20:49:16.949Z,19.25
2018-09-15T20:51:45.508Z,6.42
2018-09-15T20:54:14.124Z,6.28
2018-09-15T20:56:42.649Z,5.92
2018-09-15T20:59:11.203Z,7.97
2018-09-15T21:01:39.768Z,6.05
2018-09-15T21:04:08.383Z,10.08
2018-09-15T21:06:36.910Z,7.35
2018-09-15T21:09:08.554Z,5.80
2018-09-15T21:11:37.170Z,5.20
2018-09-15T21:14:05.851Z,4.60
2018-09-15T21:16:34.411Z,6.97
2018-09-15T21:19:02.989Z,5.70
2018-09-15T21:21:31.540Z,6.50
2018-09-15T21:24:00.077Z,8.95
2018-09-15T21:26:28.663Z,11.78
2018-09-15T21:28:57.176Z,7.42
2018-09-15T21:31:25.704Z,7.58
2018-09-15T21:33:54.227Z,7.12
2018-09-15T21:36:22.827Z,7.05
2018-09-15T21:38:51.392Z,6.65
2018-09-15T21:41:19.928Z,8.40
2018-09-15T21:43:48.461Z,6.53
2018-09-15T21:46:17.057Z,7.85
2018-09-15T21:48:45.586Z,9.73
2018-09-15T21:51:14.175Z,6.05
2018-09-15T21:53:42.731Z,7.87
2018-09-15T21:56:11.263Z,9.23
2018-09-15T21:58:39.788Z,6.65
2018-09-15T22:01:08.457Z,5.45
2018-09-15T22:03:42.509Z,8.85
2018-09-15T22:06:11.157Z,7.10
2018-09-15T22:08:39.733Z,8.63
2018-09-15T22:11:08.258Z,7.12
2018-09-15T22:13:36.778Z,7.15
2018-09-15T22:16:05.374Z,6.17
2018-09-15T22:18:33.899Z,8.03
2018-09-15T22:21:02.474Z,5.92
2018-09-15T22:23:31.045Z,6.30
2018-09-15T22:25:59.622Z,8.40
2018-09-15T22:28:28.152Z,10.90
2018-09-15T22:30:56.668Z,5.15
2018-09-15T22:33:25.213Z,8.50
2018-09-15T22:35:53.747Z,8.35
2018-09-15T22:38:22.292Z,7.97
2018-09-15T22:40:50.869Z,8.25
2018-09-15T22:43:19.439Z,6.58
2018-09-15T22:45:47.942Z,16.65
2018-09-15T22:48:16.472Z,7.62
2018-09-15T22:50:45.566Z,8.10
2018-09-15T22:53:14.154Z,6.60
2018-09-15T22:55:42.742Z,6.33
2018-09-15T22:58:11.280Z,8.18
2018-09-15T23:00:39.838Z,6.37
2018-09-15T23:03:08.371Z,11.12
2018-09-15T23:05:36.888Z,6.80
2018-09-15T23:08:05.557Z,8.93
2018-09-15T23:10:34.114Z,11.40
2018-09-15T23:13:02.679Z,7.47
2018-09-15T23:15:31.224Z,7.45
2018-09-15T23:17:59.760Z,8.98
2018-09-15T23:20:28.285Z,6.67
2018-09-15T23:22:56.841Z,7.55
2018-09-15T23:25:25.376Z,6.45
2018-09-15T23:27:53.911Z,7.20
2018-09-15T23:30:22.434Z,9.83
2018-09-15T23:32:50.964Z,4.67
2018-09-15T23:35:19.505Z,6.08
2018-09-15T23:37:48.031Z,4.30
2018-09-15T23:40:16.572Z,3.75
2018-09-15T23:42:45.095Z,5.20
2018-09-15T23:45:13.652Z,4.75
2018-09-15T23:47:42.174Z,4.95
2018-09-15T23:50:10.684Z,10.40
2018-09-15T23:52:39.235Z,6.05
2018-09-15T23:55:07.850Z,8.35
2018-09-15T23:57:36.328Z,6.80
